Pilot No 5 — WDC3840 — position and weather

sailwx.info

Track history (hours):
 
Tides and Currents Weather Stations Pressure Air Temp Water Temp Dewpoint Dewpoint Depression Visibility Wind Speed Wind Dir Waves Ship Positions

Pilot No 5

Owner: P E P INC, FT LAUDERDALE, FL. More information available from US FCC via Universal Licensing System and Coast Guard Vessel Documentation Center.

Last reported at 2014-Oct-20 20:33 UTC. Time now 2014-Oct-20 21:14 UTC.
Position N 26°06' W 080°07'.

Length 6 m.

Type: Pilot. MMSI: 367015090.

Date/timePositionNaut miles runAvg speedWind from/ knotsBaromVisibWave heightAir tempDewpointWater temp
2014-Oct-20 20:33N 26°06' W 080°07'0 0.0
2014-Oct-20 19:33N 26°06' W 080°07'0 0.0
2014-Oct-20 18:33N 26°06' W 080°07'0 0.0
2014-Oct-20 17:33N 26°06' W 080°07'0 0.0
2014-Oct-20 16:33N 26°06' W 080°07'0 0.0
2014-Oct-20 15:33N 26°06' W 080°07'0 0.0
2014-Oct-20 14:33N 26°06' W 080°07'1 0.4
2014-Oct-20 11:33N 26°06' W 080°06'1 0.9
2014-Oct-20 10:33N 26°06' W 080°07'1 0.6
2014-Oct-20 09:33N 26°06' W 080°07'3 3.5
2014-Oct-20 08:33N 26°05' W 080°04'3 3.5
2014-Oct-20 07:33N 26°06' W 080°07'0 0.0
2014-Oct-20 06:34N 26°06' W 080°07'2 1.9
2014-Oct-20 05:33N 26°06' W 080°05'2 1.9
2014-Oct-20 04:34N 26°06' W 080°07'1 0.8
2014-Oct-20 03:33N 26°05' W 080°07'1 0.0
2014-Oct-18 21:23N 26°06' W 080°07'1 0.8
2014-Oct-18 20:34N 26°06' W 080°07'1 0.1
2014-Oct-18 15:04N 26°06' W 080°07'0 0.0
2014-Oct-18 14:31N 26°06' W 080°07'1 0.9
2014-Oct-18 13:33N 26°06' W 080°07'0 0.5
2014-Oct-18 12:34N 26°05' W 080°07'1 0.5
2014-Oct-18 11:33N 26°06' W 080°07'1 1.3
2014-Oct-18 10:33N 26°06' W 080°06'1 1.2
2014-Oct-18 09:33N 26°06' W 080°07'0 0.0
2014-Oct-17 19:20N 26°06' W 080°07'3 3.3
2014-Oct-17 18:33N 26°06' W 080°05'1 0.6
2014-Oct-17 17:33N 26°06' W 080°05'2 0.6
2014-Oct-17 13:33N 26°06' W 080°07'3 2.7
2014-Oct-17 12:33N 26°06' W 080°04'2 2.4
2014-Oct-17 11:33N 26°06' W 080°07'1 0.8
2014-Oct-17 10:33N 26°06' W 080°07'0 0.3
2014-Oct-17 09:33N 26°06' W 080°07'0 0.3
2014-Oct-17 08:33N 26°06' W 080°07'0 0.0
2014-Oct-17 07:33N 26°06' W 080°07'0 0.2
2014-Oct-17 06:33N 26°06' W 080°07'1 1.3
2014-Oct-17 05:33N 26°05' W 080°07'1 0.7
2014-Oct-17 04:34N 26°05' W 080°07'1 0.8
2014-Oct-17 03:33N 26°06' W 080°07'0 0.0
2014-Oct-17 02:33N 26°06' W 080°07'2 1.6
2014-Oct-17 01:33N 26°06' W 080°06'1 1.1
2014-Oct-17 00:33N 26°05' W 080°07'0 0.1
2014-Oct-16 23:33N 26°05' W 080°07'0 0.0
2014-Oct-16 22:33N 26°05' W 080°07'0 0.3
2014-Oct-16 21:33N 26°05' W 080°07'2 2.2
2014-Oct-16 20:33N 26°05' W 080°05'2 2.0
2014-Oct-16 19:33N 26°05' W 080°07'0 0.1
2014-Oct-16 17:33N 26°06' W 080°07'0 0.4
2014-Oct-16 16:34N 26°05' W 080°07'3 3.4
2014-Oct-16 15:33N 26°05' W 080°03'3 1.7
2014-Oct-16 13:33N 26°06' W 080°07'0 0.2
2014-Oct-16 12:33N 26°05' W 080°07'0 0.2
2014-Oct-16 11:33N 26°05' W 080°07'1 1.0
2014-Oct-16 10:33N 26°06' W 080°07'1 0.8
2014-Oct-16 09:34N 26°05' W 080°07'1 0.7
2014-Oct-16 08:33N 26°06' W 080°07'0 0.2
2014-Oct-16 07:34N 26°06' W 080°07'0 0.0
2014-Oct-16 06:34N 26°06' W 080°07'1 1.1
2014-Oct-16 05:34N 26°05' W 080°07'1 0.6
2014-Oct-16 04:34N 26°06' W 080°06'0 0.1
2014-Oct-16 03:33N 26°06' W 080°06'1 1.2
2014-Oct-16 02:33N 26°06' W 080°07'0 0.0
2014-Oct-16 01:33N 26°06' W 080°07'1 0.7
2014-Oct-16 00:33N 26°06' W 080°07'1 0.7
2014-Oct-15 23:33N 26°06' W 080°07'1 0.8
2014-Oct-15 22:33N 26°06' W 080°07'0 0.3
2014-Oct-15 21:33N 26°06' W 080°07'1 0.7
2014-Oct-15 20:33N 26°06' W 080°07'0 0.1
2014-Oct-15 19:33N 26°06' W 080°07'  
Track history (hours):
 
Tides and Currents Weather Stations Pressure Air Temp Water Temp Dewpoint Dewpoint Depression Visibility Wind Speed Wind Dir Waves Ship Positions

Pilot No 5

Owner: P E P INC, FT LAUDERDALE, FL. More information available from US FCC via Universal Licensing System and Coast Guard Vessel Documentation Center.

Last reported at 2014-Oct-20 20:33 UTC. Time now 2014-Oct-20 21:14 UTC.
Position N 26°06' W 080°07'.

Length 6 m.

Type: Pilot. MMSI: 367015090.

Date/timePositionNaut miles runAvg speedWind from/ knotsBaromVisibWave heightAir tempDewpointWater temp
2014-Oct-20 20:33N 26°06' W 080°07'0 0.0
2014-Oct-20 19:33N 26°06' W 080°07'0 0.0
2014-Oct-20 18:33N 26°06' W 080°07'0 0.0
2014-Oct-20 17:33N 26°06' W 080°07'0 0.0
2014-Oct-20 16:33N 26°06' W 080°07'0 0.0
2014-Oct-20 15:33N 26°06' W 080°07'0 0.0
2014-Oct-20 14:33N 26°06' W 080°07'1 0.4
2014-Oct-20 11:33N 26°06' W 080°06'1 0.9
2014-Oct-20 10:33N 26°06' W 080°07'1 0.6
2014-Oct-20 09:33N 26°06' W 080°07'3 3.5
2014-Oct-20 08:33N 26°05' W 080°04'3 3.5
2014-Oct-20 07:33N 26°06' W 080°07'0 0.0
2014-Oct-20 06:34N 26°06' W 080°07'2 1.9
2014-Oct-20 05:33N 26°06' W 080°05'2 1.9
2014-Oct-20 04:34N 26°06' W 080°07'1 0.8
2014-Oct-20 03:33N 26°05' W 080°07'1 0.0
2014-Oct-18 21:23N 26°06' W 080°07'1 0.8
2014-Oct-18 20:34N 26°06' W 080°07'1 0.1
2014-Oct-18 15:04N 26°06' W 080°07'0 0.0
2014-Oct-18 14:31N 26°06' W 080°07'1 0.9
2014-Oct-18 13:33N 26°06' W 080°07'0 0.5
2014-Oct-18 12:34N 26°05' W 080°07'1 0.5
2014-Oct-18 11:33N 26°06' W 080°07'1 1.3
2014-Oct-18 10:33N 26°06' W 080°06'1 1.2
2014-Oct-18 09:33N 26°06' W 080°07'0 0.0
2014-Oct-17 19:20N 26°06' W 080°07'3 3.3
2014-Oct-17 18:33N 26°06' W 080°05'1 0.6
2014-Oct-17 17:33N 26°06' W 080°05'2 0.6
2014-Oct-17 13:33N 26°06' W 080°07'3 2.7
2014-Oct-17 12:33N 26°06' W 080°04'2 2.4
2014-Oct-17 11:33N 26°06' W 080°07'1 0.8
2014-Oct-17 10:33N 26°06' W 080°07'0 0.3
2014-Oct-17 09:33N 26°06' W 080°07'0 0.3
2014-Oct-17 08:33N 26°06' W 080°07'0 0.0
2014-Oct-17 07:33N 26°06' W 080°07'0 0.2
2014-Oct-17 06:33N 26°06' W 080°07'1 1.3
2014-Oct-17 05:33N 26°05' W 080°07'1 0.7
2014-Oct-17 04:34N 26°05' W 080°07'1 0.8
2014-Oct-17 03:33N 26°06' W 080°07'0 0.0
2014-Oct-17 02:33N 26°06' W 080°07'2 1.6
2014-Oct-17 01:33N 26°06' W 080°06'1 1.1
2014-Oct-17 00:33N 26°05' W 080°07'0 0.1
2014-Oct-16 23:33N 26°05' W 080°07'0 0.0
2014-Oct-16 22:33N 26°05' W 080°07'0 0.3
2014-Oct-16 21:33N 26°05' W 080°07'2 2.2
2014-Oct-16 20:33N 26°05' W 080°05'2 2.0
2014-Oct-16 19:33N 26°05' W 080°07'0 0.1
2014-Oct-16 17:33N 26°06' W 080°07'0 0.4
2014-Oct-16 16:34N 26°05' W 080°07'3 3.4
2014-Oct-16 15:33N 26°05' W 080°03'3 1.7
2014-Oct-16 13:33N 26°06' W 080°07'0 0.2
2014-Oct-16 12:33N 26°05' W 080°07'0 0.2
2014-Oct-16 11:33N 26°05' W 080°07'1 1.0
2014-Oct-16 10:33N 26°06' W 080°07'1 0.8
2014-Oct-16 09:34N 26°05' W 080°07'1 0.7
2014-Oct-16 08:33N 26°06' W 080°07'0 0.2
2014-Oct-16 07:34N 26°06' W 080°07'0 0.0
2014-Oct-16 06:34N 26°06' W 080°07'1 1.1
2014-Oct-16 05:34N 26°05' W 080°07'1 0.6
2014-Oct-16 04:34N 26°06' W 080°06'0 0.1
2014-Oct-16 03:33N 26°06' W 080°06'1 1.2
2014-Oct-16 02:33N 26°06' W 080°07'0 0.0
2014-Oct-16 01:33N 26°06' W 080°07'1 0.7
2014-Oct-16 00:33N 26°06' W 080°07'1 0.7
2014-Oct-15 23:33N 26°06' W 080°07'1 0.8
2014-Oct-15 22:33N 26°06' W 080°07'0 0.3
2014-Oct-15 21:33N 26°06' W 080°07'1 0.7
2014-Oct-15 20:33N 26°06' W 080°07'0 0.1
2014-Oct-15 19:33N 26°06' W 080°07'  

Dump ship's entire track history